Portada
METAR-TAF:

METAR-TAF

Aeroports :

Farmington Regional Airport

Farmington, Missouri, Estats Units d'Amèrica

latitud: 37-46N, longitud: 090-26W, altitud: 288 m

Observació

L'informe es va fer fa 41 minuts, a les 20:56 UTC
Vent 13 kt del Sud amb ràfegues de 20 kt
Temperatura 30°C
Humitat 62%
Pressió 1012 hPa
Visibilitat: 16.1 km
Escasses núvols a una alçada de 4100 ft

METAR: KFAM 242056Z AUTO 18013G20KT 10SM FEW041 30/22 A2989 RMK AO2 LTG DSNT N AND NW SLP121 60000 T03000217 58026

Hora: 16:37 (21:37 UTC)


TAF: manca

Observacions i pronòstics meteorològics de més de 4000 aeroports (METAR i TAF).

Les estacions disponibles són els punts grocs i vermells al mapa.

Posi el ratolí al punt desitjat per veure el nom de l'estació.

Feu clic per veure les observacions i els pronòstics meteorològics.

Per canviar el mapa: feu clic els botons verds amb una creu de color negre per apropar; al botó verd amb un guió per allunyar la imatge; o en les fletxes verdes per a mapes adjacents.


METAR-TAF: